sensor_id;sensor_type;location;lat;lon;timestamp;temperature;humidity
40538;DHT22;27925;41.874;12.526;2023-06-10T00:01:24;24.50;78.50
40538;DHT22;27925;41.874;12.526;2023-06-10T00:03:53;24.40;78.80
40538;DHT22;27925;41.874;12.526;2023-06-10T00:06:19;24.40;79.30
40538;DHT22;27925;41.874;12.526;2023-06-10T00:08:47;24.30;79.60
40538;DHT22;27925;41.874;12.526;2023-06-10T00:11:13;24.30;79.80
40538;DHT22;27925;41.874;12.526;2023-06-10T00:13:39;24.30;80.40
40538;DHT22;27925;41.874;12.526;2023-06-10T00:16:05;24.20;80.90
40538;DHT22;27925;41.874;12.526;2023-06-10T00:18:31;24.10;81.30
40538;DHT22;27925;41.874;12.526;2023-06-10T00:20:57;24.10;81.50
40538;DHT22;27925;41.874;12.526;2023-06-10T00:23:28;24.10;82.00
40538;DHT22;27925;41.874;12.526;2023-06-10T00:25:59;24.00;82.30
40538;DHT22;27925;41.874;12.526;2023-06-10T00:28:25;24.00;82.70
40538;DHT22;27925;41.874;12.526;2023-06-10T00:30:51;23.90;83.40
40538;DHT22;27925;41.874;12.526;2023-06-10T00:33:17;23.90;83.90
40538;DHT22;27925;41.874;12.526;2023-06-10T00:35:42;23.80;84.20
40538;DHT22;27925;41.874;12.526;2023-06-10T00:38:08;23.80;84.70
40538;DHT22;27925;41.874;12.526;2023-06-10T00:40:39;23.80;85.20
40538;DHT22;27925;41.874;12.526;2023-06-10T00:43:06;23.80;85.40
40538;DHT22;27925;41.874;12.526;2023-06-10T00:45:32;23.80;85.70
40538;DHT22;27925;41.874;12.526;2023-06-10T00:48:02;23.70;86.30
40538;DHT22;27925;41.874;12.526;2023-06-10T00:50:28;23.70;86.80
40538;DHT22;27925;41.874;12.526;2023-06-10T00:52:54;23.70;86.80
40538;DHT22;27925;41.874;12.526;2023-06-10T00:55:21;23.80;87.00
40538;DHT22;27925;41.874;12.526;2023-06-10T00:57:47;23.80;87.00
40538;DHT22;27925;41.874;12.526;2023-06-10T01:00:17;23.80;87.20
40538;DHT22;27925;41.874;12.526;2023-06-10T01:02:43;23.80;87.50
40538;DHT22;27925;41.874;12.526;2023-06-10T01:05:09;23.80;88.10
40538;DHT22;27925;41.874;12.526;2023-06-10T01:07:43;23.80;87.80
40538;DHT22;27925;41.874;12.526;2023-06-10T01:10:17;23.80;88.20
40538;DHT22;27925;41.874;12.526;2023-06-10T01:13:03;23.70;88.60
40538;DHT22;27925;41.874;12.526;2023-06-10T01:15:34;23.70;88.70
40538;DHT22;27925;41.874;12.526;2023-06-10T01:18:02;23.70;89.00
40538;DHT22;27925;41.874;12.526;2023-06-10T01:20:30;23.70;89.30
40538;DHT22;27925;41.874;12.526;2023-06-10T01:23:00;23.60;89.50
40538;DHT22;27925;41.874;12.526;2023-06-10T01:25:29;23.60;90.00
40538;DHT22;27925;41.874;12.526;2023-06-10T01:30:36;23.60;90.20
40538;DHT22;27925;41.874;12.526;2023-06-10T01:33:05;23.60;90.30
40538;DHT22;27925;41.874;12.526;2023-06-10T01:35:33;23.60;90.30
40538;DHT22;27925;41.874;12.526;2023-06-10T01:38:01;23.60;90.50
40538;DHT22;27925;41.874;12.526;2023-06-10T01:40:29;23.60;90.60
40538;DHT22;27925;41.874;12.526;2023-06-10T01:42:55;23.60;90.60
40538;DHT22;27925;41.874;12.526;2023-06-10T01:45:21;23.50;90.70
40538;DHT22;27925;41.874;12.526;2023-06-10T01:47:47;23.50;90.80
40538;DHT22;27925;41.874;12.526;2023-06-10T01:50:12;23.50;90.90
40538;DHT22;27925;41.874;12.526;2023-06-10T01:52:38;23.50;91.00
40538;DHT22;27925;41.874;12.526;2023-06-10T01:55:04;23.40;91.00
40538;DHT22;27925;41.874;12.526;2023-06-10T01:57:30;23.30;91.10
40538;DHT22;27925;41.874;12.526;2023-06-10T01:59:56;23.30;91.20
40538;DHT22;27925;41.874;12.526;2023-06-10T02:02:21;23.30;91.20
40538;DHT22;27925;41.874;12.526;2023-06-10T02:04:47;23.40;91.20
40538;DHT22;27925;41.874;12.526;2023-06-10T02:07:13;23.30;91.30
40538;DHT22;27925;41.874;12.526;2023-06-10T02:09:39;23.30;91.30
40538;DHT22;27925;41.874;12.526;2023-06-10T02:12:05;23.30;91.30
40538;DHT22;27925;41.874;12.526;2023-06-10T02:14:32;23.30;91.40
40538;DHT22;27925;41.874;12.526;2023-06-10T02:16:58;23.20;91.40
40538;DHT22;27925;41.874;12.526;2023-06-10T02:19:24;23.30;91.60
40538;DHT22;27925;41.874;12.526;2023-06-10T02:21:52;23.30;91.60
40538;DHT22;27925;41.874;12.526;2023-06-10T02:24:18;23.20;91.70
40538;DHT22;27925;41.874;12.526;2023-06-10T02:26:43;23.10;91.70
40538;DHT22;27925;41.874;12.526;2023-06-10T02:29:09;23.10;91.90
40538;DHT22;27925;41.874;12.526;2023-06-10T02:31:35;23.10;92.00
40538;DHT22;27925;41.874;12.526;2023-06-10T02:34:01;23.00;92.10
40538;DHT22;27925;41.874;12.526;2023-06-10T02:36:28;23.00;92.20
40538;DHT22;27925;41.874;12.526;2023-06-10T02:38:54;23.00;92.50
40538;DHT22;27925;41.874;12.526;2023-06-10T02:41:19;22.90;92.50
40538;DHT22;27925;41.874;12.526;2023-06-10T02:43:47;22.90;92.50
40538;DHT22;27925;41.874;12.526;2023-06-10T02:46:13;22.90;92.50
40538;DHT22;27925;41.874;12.526;2023-06-10T02:48:42;22.90;92.50
40538;DHT22;27925;41.874;12.526;2023-06-10T02:51:10;22.80;92.50
40538;DHT22;27925;41.874;12.526;2023-06-10T02:53:35;22.80;92.30
40538;DHT22;27925;41.874;12.526;2023-06-10T02:56:01;22.80;92.30
40538;DHT22;27925;41.874;12.526;2023-06-10T02:58:27;22.80;92.30
40538;DHT22;27925;41.874;12.526;2023-06-10T03:00:53;22.90;92.20
40538;DHT22;27925;41.874;12.526;2023-06-10T03:03:19;23.00;92.10
40538;DHT22;27925;41.874;12.526;2023-06-10T03:05:45;23.00;92.10
40538;DHT22;27925;41.874;12.526;2023-06-10T03:08:11;23.00;92.10
40538;DHT22;27925;41.874;12.526;2023-06-10T03:10:36;23.10;92.10
40538;DHT22;27925;41.874;12.526;2023-06-10T03:13:02;23.00;92.10
40538;DHT22;27925;41.874;12.526;2023-06-10T03:15:28;23.00;92.20
40538;DHT22;27925;41.874;12.526;2023-06-10T03:17:54;22.90;92.30
40538;DHT22;27925;41.874;12.526;2023-06-10T03:20:20;22.90;92.40
40538;DHT22;27925;41.874;12.526;2023-06-10T03:22:47;22.90;92.40
40538;DHT22;27925;41.874;12.526;2023-06-10T03:25:13;22.80;92.30
40538;DHT22;27925;41.874;12.526;2023-06-10T03:27:42;22.80;92.40
40538;DHT22;27925;41.874;12.526;2023-06-10T03:30:08;22.70;92.30
40538;DHT22;27925;41.874;12.526;2023-06-10T03:32:34;22.70;92.50
40538;DHT22;27925;41.874;12.526;2023-06-10T03:35:01;22.60;92.50
40538;DHT22;27925;41.874;12.526;2023-06-10T03:37:26;22.60;92.50
40538;DHT22;27925;41.874;12.526;2023-06-10T03:39:52;22.60;92.40
40538;DHT22;27925;41.874;12.526;2023-06-10T03:42:18;22.60;92.40
40538;DHT22;27925;41.874;12.526;2023-06-10T03:44:43;22.60;92.50
40538;DHT22;27925;41.874;12.526;2023-06-10T03:47:09;22.70;92.50
40538;DHT22;27925;41.874;12.526;2023-06-10T03:49:35;22.70;92.30
40538;DHT22;27925;41.874;12.526;2023-06-10T03:52:02;22.70;92.40
40538;DHT22;27925;41.874;12.526;2023-06-10T03:54:27;22.70;92.10
40538;DHT22;27925;41.874;12.526;2023-06-10T03:56:53;22.70;91.90
40538;DHT22;27925;41.874;12.526;2023-06-10T03:59:19;22.80;91.80
40538;DHT22;27925;41.874;12.526;2023-06-10T04:01:44;22.80;91.60
40538;DHT22;27925;41.874;12.526;2023-06-10T04:04:15;22.80;91.60
40538;DHT22;27925;41.874;12.526;2023-06-10T04:06:44;22.70;91.50
40538;DHT22;27925;41.874;12.526;2023-06-10T04:09:10;22.70;91.40
40538;DHT22;27925;41.874;12.526;2023-06-10T04:11:36;22.70;91.40
40538;DHT22;27925;41.874;12.526;2023-06-10T04:14:02;22.70;91.40
40538;DHT22;27925;41.874;12.526;2023-06-10T04:16:28;22.70;91.40
40538;DHT22;27925;41.874;12.526;2023-06-10T04:18:54;22.80;91.30
40538;DHT22;27925;41.874;12.526;2023-06-10T04:21:20;22.80;91.20
40538;DHT22;27925;41.874;12.526;2023-06-10T04:23:47;22.90;91.00
40538;DHT22;27925;41.874;12.526;2023-06-10T04:26:13;22.90;90.90
40538;DHT22;27925;41.874;12.526;2023-06-10T04:28:38;22.80;91.00
40538;DHT22;27925;41.874;12.526;2023-06-10T04:31:04;22.90;91.00
40538;DHT22;27925;41.874;12.526;2023-06-10T04:33:30;22.80;91.10
40538;DHT22;27925;41.874;12.526;2023-06-10T04:35:56;22.80;91.10
40538;DHT22;27925;41.874;12.526;2023-06-10T04:38:22;22.80;91.10
40538;DHT22;27925;41.874;12.526;2023-06-10T04:40:48;22.80;91.20
40538;DHT22;27925;41.874;12.526;2023-06-10T04:43:14;22.80;91.20
40538;DHT22;27925;41.874;12.526;2023-06-10T04:45:39;22.80;91.30
40538;DHT22;27925;41.874;12.526;2023-06-10T04:48:05;22.70;91.30
40538;DHT22;27925;41.874;12.526;2023-06-10T04:50:32;22.70;91.50
40538;DHT22;27925;41.874;12.526;2023-06-10T04:52:58;22.70;91.80
40538;DHT22;27925;41.874;12.526;2023-06-10T04:55:24;22.70;91.40
40538;DHT22;27925;41.874;12.526;2023-06-10T04:57:50;22.70;91.30
40538;DHT22;27925;41.874;12.526;2023-06-10T05:00:18;22.70;91.40
40538;DHT22;27925;41.874;12.526;2023-06-10T05:02:43;22.70;91.30
40538;DHT22;27925;41.874;12.526;2023-06-10T05:05:10;22.70;91.30
40538;DHT22;27925;41.874;12.526;2023-06-10T05:07:36;22.70;91.20
40538;DHT22;27925;41.874;12.526;2023-06-10T05:10:02;22.70;91.00
40538;DHT22;27925;41.874;12.526;2023-06-10T05:12:28;22.70;90.80
40538;DHT22;27925;41.874;12.526;2023-06-10T05:14:54;22.60;90.80
40538;DHT22;27925;41.874;12.526;2023-06-10T05:17:20;22.60;90.80
40538;DHT22;27925;41.874;12.526;2023-06-10T05:19:46;22.60;90.90
40538;DHT22;27925;41.874;12.526;2023-06-10T05:22:12;22.60;90.80
40538;DHT22;27925;41.874;12.526;2023-06-10T05:24:38;22.60;90.70
40538;DHT22;27925;41.874;12.526;2023-06-10T05:27:04;22.70;90.40
40538;DHT22;27925;41.874;12.526;2023-06-10T05:29:32;22.70;90.20
40538;DHT22;27925;41.874;12.526;2023-06-10T05:31:59;22.80;90.10
40538;DHT22;27925;41.874;12.526;2023-06-10T05:34:31;22.90;89.90
40538;DHT22;27925;41.874;12.526;2023-06-10T05:36:56;23.00;89.80
40538;DHT22;27925;41.874;12.526;2023-06-10T05:39:23;23.10;89.00
40538;DHT22;27925;41.874;12.526;2023-06-10T05:41:48;23.30;88.80
40538;DHT22;27925;41.874;12.526;2023-06-10T05:44:14;23.20;88.20
40538;DHT22;27925;41.874;12.526;2023-06-10T05:46:40;23.30;88.00
40538;DHT22;27925;41.874;12.526;2023-06-10T05:49:05;23.20;87.80
40538;DHT22;27925;41.874;12.526;2023-06-10T05:51:31;23.10;87.40
40538;DHT22;27925;41.874;12.526;2023-06-10T05:53:57;23.00;87.20
40538;DHT22;27925;41.874;12.526;2023-06-10T05:56:23;23.00;87.40
40538;DHT22;27925;41.874;12.526;2023-06-10T05:58:49;23.00;87.60
40538;DHT22;27925;41.874;12.526;2023-06-10T06:01:15;23.00;87.40
40538;DHT22;27925;41.874;12.526;2023-06-10T06:03:40;23.00;87.10
40538;DHT22;27925;41.874;12.526;2023-06-10T06:06:06;23.00;86.70
40538;DHT22;27925;41.874;12.526;2023-06-10T06:08:32;23.10;86.70
40538;DHT22;27925;41.874;12.526;2023-06-10T06:10:58;23.80;85.50
40538;DHT22;27925;41.874;12.526;2023-06-10T06:13:24;24.60;83.10
40538;DHT22;27925;41.874;12.526;2023-06-10T06:15:50;25.30;80.70
40538;DHT22;27925;41.874;12.526;2023-06-10T06:18:16;25.90;78.90
40538;DHT22;27925;41.874;12.526;2023-06-10T06:20:41;26.50;77.20
40538;DHT22;27925;41.874;12.526;2023-06-10T06:23:07;27.10;75.50
40538;DHT22;27925;41.874;12.526;2023-06-10T06:25:35;27.50;73.90
40538;DHT22;27925;41.874;12.526;2023-06-10T06:28:02;27.90;72.80
40538;DHT22;27925;41.874;12.526;2023-06-10T06:30:27;28.10;71.70
40538;DHT22;27925;41.874;12.526;2023-06-10T06:32:53;28.00;71.00
40538;DHT22;27925;41.874;12.526;2023-06-10T06:35:19;27.70;70.90
40538;DHT22;27925;41.874;12.526;2023-06-10T06:37:44;27.20;71.50
40538;DHT22;27925;41.874;12.526;2023-06-10T06:40:11;26.90;72.10
40538;DHT22;27925;41.874;12.526;2023-06-10T06:42:36;26.60;71.90
40538;DHT22;27925;41.874;12.526;2023-06-10T06:45:02;26.30;72.70
40538;DHT22;27925;41.874;12.526;2023-06-10T06:47:28;26.10;73.10
40538;DHT22;27925;41.874;12.526;2023-06-10T06:49:53;26.20;72.70
40538;DHT22;27925;41.874;12.526;2023-06-10T06:52:19;26.30;72.30
40538;DHT22;27925;41.874;12.526;2023-06-10T06:54:45;26.50;72.10
40538;DHT22;27925;41.874;12.526;2023-06-10T06:57:10;26.60;71.60
40538;DHT22;27925;41.874;12.526;2023-06-10T06:59:36;27.10;71.60
40538;DHT22;27925;41.874;12.526;2023-06-10T07:02:03;27.50;70.00
40538;DHT22;27925;41.874;12.526;2023-06-10T07:04:28;27.50;69.80
40538;DHT22;27925;41.874;12.526;2023-06-10T07:06:54;27.50;69.60
40538;DHT22;27925;41.874;12.526;2023-06-10T07:09:20;27.40;69.30
40538;DHT22;27925;41.874;12.526;2023-06-10T07:11:46;27.40;69.70
40538;DHT22;27925;41.874;12.526;2023-06-10T07:14:11;27.40;69.30
40538;DHT22;27925;41.874;12.526;2023-06-10T07:16:37;27.20;69.10
40538;DHT22;27925;41.874;12.526;2023-06-10T07:19:03;27.10;69.30
40538;DHT22;27925;41.874;12.526;2023-06-10T07:21:30;27.00;69.10
40538;DHT22;27925;41.874;12.526;2023-06-10T07:23:55;27.00;68.90
40538;DHT22;27925;41.874;12.526;2023-06-10T07:26:24;27.10;68.80
40538;DHT22;27925;41.874;12.526;2023-06-10T07:28:51;27.10;68.80
40538;DHT22;27925;41.874;12.526;2023-06-10T07:31:16;27.00;68.90
40538;DHT22;27925;41.874;12.526;2023-06-10T07:33:42;26.90;69.00
40538;DHT22;27925;41.874;12.526;2023-06-10T07:36:09;26.90;69.10
40538;DHT22;27925;41.874;12.526;2023-06-10T07:38:35;27.20;69.00
40538;DHT22;27925;41.874;12.526;2023-06-10T07:41:01;27.60;68.50
40538;DHT22;27925;41.874;12.526;2023-06-10T07:43:27;27.90;68.50
40538;DHT22;27925;41.874;12.526;2023-06-10T07:45:52;28.00;67.20
40538;DHT22;27925;41.874;12.526;2023-06-10T07:48:18;28.10;66.90
40538;DHT22;27925;41.874;12.526;2023-06-10T07:50:44;28.20;66.70
40538;DHT22;27925;41.874;12.526;2023-06-10T07:53:10;28.30;66.40
40538;DHT22;27925;41.874;12.526;2023-06-10T07:55:36;28.30;67.10
40538;DHT22;27925;41.874;12.526;2023-06-10T07:58:02;28.30;66.30
40538;DHT22;27925;41.874;12.526;2023-06-10T08:00:27;28.40;66.10
40538;DHT22;27925;41.874;12.526;2023-06-10T08:02:53;28.40;65.70
40538;DHT22;27925;41.874;12.526;2023-06-10T08:05:19;28.40;65.50
40538;DHT22;27925;41.874;12.526;2023-06-10T08:07:45;28.40;65.00
40538;DHT22;27925;41.874;12.526;2023-06-10T08:10:11;28.30;65.40
40538;DHT22;27925;41.874;12.526;2023-06-10T08:12:37;28.30;65.30
40538;DHT22;27925;41.874;12.526;2023-06-10T08:15:03;28.20;64.20
40538;DHT22;27925;41.874;12.526;2023-06-10T08:17:30;28.10;64.30
40538;DHT22;27925;41.874;12.526;2023-06-10T08:19:56;28.20;64.10
40538;DHT22;27925;41.874;12.526;2023-06-10T08:22:22;28.10;63.90
40538;DHT22;27925;41.874;12.526;2023-06-10T08:24:47;28.10;63.90
40538;DHT22;27925;41.874;12.526;2023-06-10T08:27:13;28.00;63.60
40538;DHT22;27925;41.874;12.526;2023-06-10T08:29:39;28.00;63.60
40538;DHT22;27925;41.874;12.526;2023-06-10T08:32:05;27.90;62.80
40538;DHT22;27925;41.874;12.526;2023-06-10T08:34:34;27.90;62.40
40538;DHT22;27925;41.874;12.526;2023-06-10T08:37:01;27.90;62.90
40538;DHT22;27925;41.874;12.526;2023-06-10T08:39:26;28.00;63.30
40538;DHT22;27925;41.874;12.526;2023-06-10T08:44:35;28.00;63.90
40538;DHT22;27925;41.874;12.526;2023-06-10T08:47:07;28.00;64.00
40538;DHT22;27925;41.874;12.526;2023-06-10T08:49:38;27.90;64.00
40538;DHT22;27925;41.874;12.526;2023-06-10T08:52:05;27.90;64.10
40538;DHT22;27925;41.874;12.526;2023-06-10T08:54:33;27.80;64.20
40538;DHT22;27925;41.874;12.526;2023-06-10T08:57:05;27.70;63.80
40538;DHT22;27925;41.874;12.526;2023-06-10T08:59:31;27.60;63.30
40538;DHT22;27925;41.874;12.526;2023-06-10T09:01:57;27.50;62.90
40538;DHT22;27925;41.874;12.526;2023-06-10T09:04:24;27.50;61.80
40538;DHT22;27925;41.874;12.526;2023-06-10T09:06:51;27.50;61.00
40538;DHT22;27925;41.874;12.526;2023-06-10T09:09:17;27.50;60.70
40538;DHT22;27925;41.874;12.526;2023-06-10T09:11:44;27.50;60.50
40538;DHT22;27925;41.874;12.526;2023-06-10T09:14:09;27.40;60.40
40538;DHT22;27925;41.874;12.526;2023-06-10T09:16:38;27.40;60.70
40538;DHT22;27925;41.874;12.526;2023-06-10T09:19:03;27.50;60.90
40538;DHT22;27925;41.874;12.526;2023-06-10T09:21:33;27.50;60.80
40538;DHT22;27925;41.874;12.526;2023-06-10T09:23:59;27.50;60.30
40538;DHT22;27925;41.874;12.526;2023-06-10T09:26:29;27.60;60.40
40538;DHT22;27925;41.874;12.526;2023-06-10T09:29:04;27.70;59.70
40538;DHT22;27925;41.874;12.526;2023-06-10T09:31:31;27.70;59.60
40538;DHT22;27925;41.874;12.526;2023-06-10T09:34:13;27.60;59.30
40538;DHT22;27925;41.874;12.526;2023-06-10T09:36:40;27.60;59.30
40538;DHT22;27925;41.874;12.526;2023-06-10T09:39:15;27.60;59.60
40538;DHT22;27925;41.874;12.526;2023-06-10T09:41:41;27.60;59.00
40538;DHT22;27925;41.874;12.526;2023-06-10T09:44:18;27.60;59.20
40538;DHT22;27925;41.874;12.526;2023-06-10T09:46:46;27.70;59.40
40538;DHT22;27925;41.874;12.526;2023-06-10T09:49:12;27.70;59.10
40538;DHT22;27925;41.874;12.526;2023-06-10T09:51:49;27.80;59.10
40538;DHT22;27925;41.874;12.526;2023-06-10T09:54:15;27.80;59.10
40538;DHT22;27925;41.874;12.526;2023-06-10T09:56:40;27.90;58.80
40538;DHT22;27925;41.874;12.526;2023-06-10T09:59:08;28.00;58.50
40538;DHT22;27925;41.874;12.526;2023-06-10T10:01:34;28.00;58.30
40538;DHT22;27925;41.874;12.526;2023-06-10T10:04:00;28.10;57.80
40538;DHT22;27925;41.874;12.526;2023-06-10T10:06:30;28.10;57.60
40538;DHT22;27925;41.874;12.526;2023-06-10T10:08:56;28.20;57.80
40538;DHT22;27925;41.874;12.526;2023-06-10T10:11:22;28.20;57.60
40538;DHT22;27925;41.874;12.526;2023-06-10T10:13:50;28.30;57.50
40538;DHT22;27925;41.874;12.526;2023-06-10T10:16:42;28.30;57.40
40538;DHT22;27925;41.874;12.526;2023-06-10T10:19:11;28.40;57.50
40538;DHT22;27925;41.874;12.526;2023-06-10T10:21:56;28.40;57.80
40538;DHT22;27925;41.874;12.526;2023-06-10T10:24:51;28.40;57.80
40538;DHT22;27925;41.874;12.526;2023-06-10T10:27:26;28.50;58.00
40538;DHT22;27925;41.874;12.526;2023-06-10T10:29:54;28.50;58.20
40538;DHT22;27925;41.874;12.526;2023-06-10T10:32:29;28.50;58.20
40538;DHT22;27925;41.874;12.526;2023-06-10T10:35:08;28.60;58.20
40538;DHT22;27925;41.874;12.526;2023-06-10T10:37:35;28.70;58.10
40538;DHT22;27925;41.874;12.526;2023-06-10T10:40:02;28.80;58.30
40538;DHT22;27925;41.874;12.526;2023-06-10T10:42:29;28.80;58.00
40538;DHT22;27925;41.874;12.526;2023-06-10T10:44:56;28.90;58.00
40538;DHT22;27925;41.874;12.526;2023-06-10T10:47:22;28.90;57.80
40538;DHT22;27925;41.874;12.526;2023-06-10T10:49:52;28.90;57.40
40538;DHT22;27925;41.874;12.526;2023-06-10T10:52:24;29.00;57.90
40538;DHT22;27925;41.874;12.526;2023-06-10T10:54:53;29.00;57.70
40538;DHT22;27925;41.874;12.526;2023-06-10T10:57:21;29.00;57.50
40538;DHT22;27925;41.874;12.526;2023-06-10T10:59:58;29.00;57.80
40538;DHT22;27925;41.874;12.526;2023-06-10T11:02:37;29.00;57.50
40538;DHT22;27925;41.874;12.526;2023-06-10T11:05:07;29.00;56.90
40538;DHT22;27925;41.874;12.526;2023-06-10T11:07:34;29.00;57.10
40538;DHT22;27925;41.874;12.526;2023-06-10T11:10:08;29.00;57.10
40538;DHT22;27925;41.874;12.526;2023-06-10T11:15:13;29.10;57.20
40538;DHT22;27925;41.874;12.526;2023-06-10T11:18:11;29.20;56.90
40538;DHT22;27925;41.874;12.526;2023-06-10T11:33:54;29.50;55.60
40538;DHT22;27925;41.874;12.526;2023-06-10T11:36:20;29.60;55.70
40538;DHT22;27925;41.874;12.526;2023-06-10T11:38:46;29.70;55.60
40538;DHT22;27925;41.874;12.526;2023-06-10T11:41:14;29.70;55.50
40538;DHT22;27925;41.874;12.526;2023-06-10T11:43:43;29.80;55.60
40538;DHT22;27925;41.874;12.526;2023-06-10T11:46:13;29.90;55.40
40538;DHT22;27925;41.874;12.526;2023-06-10T11:48:41;30.00;55.10
40538;DHT22;27925;41.874;12.526;2023-06-10T11:51:13;29.90;55.90
40538;DHT22;27925;41.874;12.526;2023-06-10T11:53:39;29.90;56.00
40538;DHT22;27925;41.874;12.526;2023-06-10T11:56:04;29.70;56.10
40538;DHT22;27925;41.874;12.526;2023-06-10T11:58:30;29.60;56.30
40538;DHT22;27925;41.874;12.526;2023-06-10T12:00:56;29.50;56.40
40538;DHT22;27925;41.874;12.526;2023-06-10T12:03:23;29.60;56.40
40538;DHT22;27925;41.874;12.526;2023-06-10T12:06:01;29.60;56.60
40538;DHT22;27925;41.874;12.526;2023-06-10T12:08:27;29.50;56.50
40538;DHT22;27925;41.874;12.526;2023-06-10T12:10:56;29.60;56.50
40538;DHT22;27925;41.874;12.526;2023-06-10T12:13:23;29.60;56.20
40538;DHT22;27925;41.874;12.526;2023-06-10T12:15:49;29.60;56.10
40538;DHT22;27925;41.874;12.526;2023-06-10T12:18:19;29.70;55.80
40538;DHT22;27925;41.874;12.526;2023-06-10T12:20:46;29.80;55.60
40538;DHT22;27925;41.874;12.526;2023-06-10T12:23:12;29.80;55.40
40538;DHT22;27925;41.874;12.526;2023-06-10T12:25:39;29.80;55.10
40538;DHT22;27925;41.874;12.526;2023-06-10T12:28:05;29.80;54.70
40538;DHT22;27925;41.874;12.526;2023-06-10T12:30:32;29.80;54.60
40538;DHT22;27925;41.874;12.526;2023-06-10T12:32:58;29.70;54.50
40538;DHT22;27925;41.874;12.526;2023-06-10T12:35:26;29.60;54.30
40538;DHT22;27925;41.874;12.526;2023-06-10T12:40:32;29.70;53.70
40538;DHT22;27925;41.874;12.526;2023-06-10T12:42:58;29.80;53.60
40538;DHT22;27925;41.874;12.526;2023-06-10T12:45:38;29.90;54.00
40538;DHT22;27925;41.874;12.526;2023-06-10T12:48:16;29.90;53.60
40538;DHT22;27925;41.874;12.526;2023-06-10T12:50:43;29.70;53.90
40538;DHT22;27925;41.874;12.526;2023-06-10T12:53:10;29.70;54.20
40538;DHT22;27925;41.874;12.526;2023-06-10T12:55:37;29.70;54.10
40538;DHT22;27925;41.874;12.526;2023-06-10T12:58:03;29.80;54.20
40538;DHT22;27925;41.874;12.526;2023-06-10T13:00:29;29.80;54.20
40538;DHT22;27925;41.874;12.526;2023-06-10T13:02:59;29.90;53.50
40538;DHT22;27925;41.874;12.526;2023-06-10T13:05:26;29.90;53.80
40538;DHT22;27925;41.874;12.526;2023-06-10T13:07:52;29.90;53.50
40538;DHT22;27925;41.874;12.526;2023-06-10T13:10:18;29.90;53.20
40538;DHT22;27925;41.874;12.526;2023-06-10T13:12:44;29.80;53.30
40538;DHT22;27925;41.874;12.526;2023-06-10T13:15:10;29.70;53.30
40538;DHT22;27925;41.874;12.526;2023-06-10T13:17:37;29.70;53.50
40538;DHT22;27925;41.874;12.526;2023-06-10T13:20:07;29.70;54.00
40538;DHT22;27925;41.874;12.526;2023-06-10T13:22:34;29.80;54.10
40538;DHT22;27925;41.874;12.526;2023-06-10T13:25:03;29.90;54.40
40538;DHT22;27925;41.874;12.526;2023-06-10T13:27:29;30.00;54.30
40538;DHT22;27925;41.874;12.526;2023-06-10T13:29:55;29.90;54.40
40538;DHT22;27925;41.874;12.526;2023-06-10T13:32:21;29.90;54.90
40538;DHT22;27925;41.874;12.526;2023-06-10T13:34:47;30.00;55.20
40538;DHT22;27925;41.874;12.526;2023-06-10T13:37:12;30.00;55.30
40538;DHT22;27925;41.874;12.526;2023-06-10T13:39:38;30.00;55.30
40538;DHT22;27925;41.874;12.526;2023-06-10T13:42:05;30.10;55.50
40538;DHT22;27925;41.874;12.526;2023-06-10T13:44:33;30.10;55.40
40538;DHT22;27925;41.874;12.526;2023-06-10T13:47:02;30.10;55.10
40538;DHT22;27925;41.874;12.526;2023-06-10T13:49:27;30.10;55.60
40538;DHT22;27925;41.874;12.526;2023-06-10T13:51:53;30.00;55.80
40538;DHT22;27925;41.874;12.526;2023-06-10T13:54:19;30.00;55.90
40538;DHT22;27925;41.874;12.526;2023-06-10T13:56:44;29.90;56.10
40538;DHT22;27925;41.874;12.526;2023-06-10T13:59:10;30.00;56.40
40538;DHT22;27925;41.874;12.526;2023-06-10T14:01:36;29.90;56.40
40538;DHT22;27925;41.874;12.526;2023-06-10T14:04:01;29.90;56.30
40538;DHT22;27925;41.874;12.526;2023-06-10T14:06:28;29.90;56.70
40538;DHT22;27925;41.874;12.526;2023-06-10T14:08:54;29.90;56.80
40538;DHT22;27925;41.874;12.526;2023-06-10T14:11:23;29.90;56.60
40538;DHT22;27925;41.874;12.526;2023-06-10T14:13:49;29.90;56.90
40538;DHT22;27925;41.874;12.526;2023-06-10T14:16:15;29.80;56.70
40538;DHT22;27925;41.874;12.526;2023-06-10T14:18:40;29.80;56.70
40538;DHT22;27925;41.874;12.526;2023-06-10T14:21:06;29.80;56.50
40538;DHT22;27925;41.874;12.526;2023-06-10T14:23:31;29.80;56.50
40538;DHT22;27925;41.874;12.526;2023-06-10T14:25:57;29.80;56.60
40538;DHT22;27925;41.874;12.526;2023-06-10T14:28:24;29.90;56.60
40538;DHT22;27925;41.874;12.526;2023-06-10T14:30:51;29.90;55.90
40538;DHT22;27925;41.874;12.526;2023-06-10T14:33:17;29.90;56.90
40538;DHT22;27925;41.874;12.526;2023-06-10T14:35:43;30.00;56.70
40538;DHT22;27925;41.874;12.526;2023-06-10T14:38:09;30.00;56.70
40538;DHT22;27925;41.874;12.526;2023-06-10T14:40:35;29.80;56.30
40538;DHT22;27925;41.874;12.526;2023-06-10T14:43:01;29.70;56.40
40538;DHT22;27925;41.874;12.526;2023-06-10T14:45:29;29.70;56.50
40538;DHT22;27925;41.874;12.526;2023-06-10T14:47:55;29.70;56.60
40538;DHT22;27925;41.874;12.526;2023-06-10T14:50:21;29.80;56.70
40538;DHT22;27925;41.874;12.526;2023-06-10T14:52:46;29.80;56.40
40538;DHT22;27925;41.874;12.526;2023-06-10T14:55:12;29.80;56.70
40538;DHT22;27925;41.874;12.526;2023-06-10T14:57:38;29.80;56.20
40538;DHT22;27925;41.874;12.526;2023-06-10T15:00:04;29.80;56.40
40538;DHT22;27925;41.874;12.526;2023-06-10T15:02:30;29.80;56.00
40538;DHT22;27925;41.874;12.526;2023-06-10T15:04:55;29.70;55.70
40538;DHT22;27925;41.874;12.526;2023-06-10T15:07:21;29.60;55.80
40538;DHT22;27925;41.874;12.526;2023-06-10T15:09:47;29.60;55.60
40538;DHT22;27925;41.874;12.526;2023-06-10T15:12:12;29.50;55.00
40538;DHT22;27925;41.874;12.526;2023-06-10T15:14:38;29.60;54.70
40538;DHT22;27925;41.874;12.526;2023-06-10T15:17:04;29.50;54.40
40538;DHT22;27925;41.874;12.526;2023-06-10T15:19:29;29.60;54.60
40538;DHT22;27925;41.874;12.526;2023-06-10T15:21:55;29.60;54.20
40538;DHT22;27925;41.874;12.526;2023-06-10T15:24:21;29.70;53.90
40538;DHT22;27925;41.874;12.526;2023-06-10T15:26:46;29.70;54.00
40538;DHT22;27925;41.874;12.526;2023-06-10T15:29:12;29.70;54.00
40538;DHT22;27925;41.874;12.526;2023-06-10T15:31:38;29.70;54.30
40538;DHT22;27925;41.874;12.526;2023-06-10T15:34:03;29.70;54.20
40538;DHT22;27925;41.874;12.526;2023-06-10T15:36:30;29.80;54.50
40538;DHT22;27925;41.874;12.526;2023-06-10T15:39:02;29.80;54.60